Time;durP1;ratioP1;P1;durP2;ratioP2;P2;SDS_P1;SDS_P2;PMS_P1;PMS_P2;Temp;Humidity;BMP_temperature;BMP_pressure;BME280_temperature;BME280_humidity;BME280_pressure;Samples;Min_cycle;Max_cycle;Signal;HPM_P1;HPM_P2
2021/12/02 15:58:02;;;;;;;2.75;2.65;;;1.80;99.90;;;;;;5114464;27;21092;-70
2021/12/02 16:00:29;;;;;;;2.50;2.30;;;1.80;99.90;;;;;;5111347;28;20480;-70
2021/12/02 16:02:57;;;;;;;3.50;2.20;;;1.80;99.90;;;;;;5113980;28;20200;-70
2021/12/02 16:05:32;;;;;;;3.88;2.00;;;1.70;99.90;;;;;;5100478;28;20204;-69
2021/12/02 16:08:05;;;;;;;2.53;1.42;;;1.70;99.90;;;;;;5100165;28;20192;-70
2021/12/02 16:11:04;;;;;;;3.67;3.38;;;1.70;99.90;;;;;;5099400;28;20280;-70
2021/12/02 16:13:32;;;;;;;2.65;2.55;;;1.70;99.90;;;;;;5098938;28;20627;-70
2021/12/02 16:15:59;;;;;;;3.35;2.95;;;1.70;99.90;;;;;;5094768;28;20232;-69
2021/12/02 16:18:27;;;;;;;3.80;2.25;;;1.70;99.90;;;;;;5095918;28;20204;-69
2021/12/02 16:20:58;;;;;;;4.05;1.98;;;1.70;99.90;;;;;;5109986;28;20232;-70
2021/12/02 16:23:25;;;;;;;5.55;2.30;;;1.60;99.90;;;;;;5111998;28;20200;-70
2021/12/02 16:25:51;;;;;;;9.10;5.68;;;1.60;99.90;;;;;;5107020;28;20200;-70
2021/12/02 16:28:18;;;;;;;7.22;3.38;;;1.60;99.90;;;;;;5108392;28;20216;-70
2021/12/02 16:30:46;;;;;;;9.65;5.88;;;1.60;99.90;;;;;;5090624;28;20216;-70
2021/12/02 16:33:13;;;;;;;11.25;4.85;;;1.60;99.90;;;;;;5097693;28;20223;-70
2021/12/02 16:35:40;;;;;;;2.80;2.55;;;1.60;99.90;;;;;;5099371;28;20631;-70
2021/12/02 16:38:07;;;;;;;5.70;3.70;;;1.50;99.90;;;;;;5090667;28;20203;-70
2021/12/02 16:40:34;;;;;;;7.38;2.50;;;1.50;99.90;;;;;;5092619;28;20661;-70
2021/12/02 16:43:03;;;;;;;7.43;1.98;;;1.50;99.90;;;;;;5095491;28;20540;-70
2021/12/02 16:45:31;;;;;;;4.55;3.05;;;1.50;99.90;;;;;;5097155;28;20239;-69
2021/12/02 16:48:00;;;;;;;3.22;2.88;;;1.40;99.90;;;;;;5091275;28;20228;-69
2021/12/02 16:50:28;;;;;;;4.28;2.97;;;1.40;99.90;;;;;;5096247;28;20247;-69
2021/12/02 16:52:57;;;;;;;5.80;3.97;;;1.40;99.90;;;;;;5096111;28;20259;-69
2021/12/02 16:55:25;;;;;;;5.45;3.92;;;1.40;99.90;;;;;;5101599;28;20228;-69
2021/12/02 16:57:52;;;;;;;5.07;3.55;;;1.40;99.90;;;;;;5109914;28;20227;-69
2021/12/02 17:00:21;;;;;;;2.47;2.03;;;1.40;99.90;;;;;;5103690;28;20219;-69
2021/12/02 17:02:48;;;;;;;4.75;4.30;;;1.30;99.90;;;;;;5102909;28;20212;-69
2021/12/02 17:05:16;;;;;;;4.93;3.65;;;1.30;99.90;;;;;;5099549;28;20212;-70
2021/12/02 17:07:43;;;;;;;9.45;5.18;;;1.30;99.90;;;;;;5087859;28;20247;-70
2021/12/02 17:10:11;;;;;;;8.95;5.90;;;1.30;99.90;;;;;;5086400;28;20736;-70
2021/12/02 17:12:38;;;;;;;8.60;5.88;;;1.30;99.90;;;;;;5075835;28;20224;-70
2021/12/02 17:15:06;;;;;;;8.38;6.13;;;1.20;99.90;;;;;;5091946;28;20219;-70
2021/12/02 17:17:33;;;;;;;13.05;4.07;;;1.20;99.90;;;;;;5090041;28;20200;-69
2021/12/02 17:20:00;;;;;;;13.48;6.20;;;1.20;99.90;;;;;;5090146;28;20235;-69
2021/12/02 17:22:28;;;;;;;2.55;2.35;;;1.20;99.90;;;;;;5085230;28;20228;-69
2021/12/02 17:24:55;;;;;;;3.05;2.95;;;1.20;99.90;;;;;;5079834;28;20665;-69
2021/12/02 17:27:23;;;;;;;3.53;2.65;;;1.20;99.90;;;;;;5089955;28;20213;-68
2021/12/02 17:55:42;;;;;;;4.75;3.50;;;0.80;99.90;;;;;;5081928;27;20447;-69
2021/12/02 17:58:09;;;;;;;2.85;2.63;;;0.80;99.90;;;;;;5079349;28;20276;-69
2021/12/02 18:00:36;;;;;;;3.30;3.00;;;0.80;99.90;;;;;;5082332;28;20248;-69
2021/12/02 18:03:04;;;;;;;5.40;2.47;;;0.80;99.90;;;;;;5064707;28;20554;-68
2021/12/02 18:05:31;;;;;;;6.15;2.75;;;0.80;99.90;;;;;;5057460;28;20616;-69
2021/12/02 18:07:58;;;;;;;5.15;3.00;;;0.80;99.90;;;;;;5066396;28;20281;-69
2021/12/02 18:10:25;;;;;;;5.70;3.35;;;0.80;99.90;;;;;;5065990;28;20201;-69
2021/12/02 18:12:57;;;;;;;5.75;5.32;;;0.80;99.90;;;;;;5067622;28;20202;-68
2021/12/02 18:15:24;;;;;;;9.85;5.07;;;0.80;99.90;;;;;;5066672;28;20231;-69
2021/12/02 18:17:52;;;;;;;13.50;6.35;;;0.80;99.90;;;;;;5061216;28;20374;-68
2021/12/02 18:20:20;;;;;;;8.43;5.60;;;0.80;99.90;;;;;;5059309;28;20212;-68
2021/12/02 18:22:46;;;;;;;12.23;6.82;;;0.80;99.90;;;;;;5066363;28;20201;-68
2021/12/02 18:25:14;;;;;;;8.98;5.32;;;0.80;99.90;;;;;;5065394;28;20209;-68
2021/12/02 18:27:41;;;;;;;6.13;4.75;;;0.80;99.90;;;;;;5063901;28;20209;-69
2021/12/02 18:30:10;;;;;;;6.75;4.82;;;0.70;99.90;;;;;;5073286;22;20185;-69
2021/12/02 18:32:36;;;;;;;7.28;3.33;;;0.70;99.90;;;;;;5026157;28;20214;-70
2021/12/02 18:35:04;;;;;;;4.82;3.22;;;0.80;99.90;;;;;;5023622;28;20681;-70
2021/12/02 18:37:31;;;;;;;7.55;2.90;;;0.70;99.90;;;;;;5025333;28;20218;-71
2021/12/02 18:39:58;;;;;;;3.95;3.65;;;0.70;99.90;;;;;;5019647;28;20203;-71
2021/12/02 18:42:26;;;;;;;3.55;3.28;;;0.70;99.90;;;;;;5028640;28;20749;-71
2021/12/02 18:44:56;;;;;;;5.32;3.67;;;0.70;99.90;;;;;;5042445;28;20226;-71
2021/12/02 18:47:25;;;;;;;4.68;2.80;;;0.70;99.90;;;;;;5039070;28;20201;-71
2021/12/02 18:49:55;;;;;;;7.22;4.43;;;0.70;99.90;;;;;;5027638;28;20286;-71
2021/12/02 18:52:24;;;;;;;5.82;5.43;;;0.70;99.90;;;;;;5027174;28;20198;-71
2021/12/02 18:54:50;;;;;;;9.70;5.97;;;0.70;99.90;;;;;;5026663;28;20211;-71
2021/12/02 18:57:17;;;;;;;5.30;4.78;;;0.60;99.90;;;;;;5029673;28;20253;-71
2021/12/02 18:59:45;;;;;;;6.80;6.30;;;0.60;99.90;;;;;;5023342;28;20210;-70
2021/12/02 19:02:17;;;;;;;10.15;7.47;;;0.60;99.90;;;;;;5038185;28;20365;-71
2021/12/02 19:04:47;;;;;;;8.50;7.10;;;0.60;99.90;;;;;;5029548;28;20237;-71
2021/12/02 19:07:28;;;;;;;7.88;7.25;;;0.60;99.90;;;;;;5009718;28;20235;-71
2021/12/02 19:26:09;;;;;;;5.47;4.70;;;0.50;99.90;;;;;;5013417;28;20226;-71
2021/12/02 19:26:26;;;;;;;7.50;5.30;;;0.50;99.90;;;;;;5010719;28;20204;-71
2021/12/02 19:28:58;;;;;;;7.43;4.32;;;0.50;99.90;;;;;;5009408;28;20203;-71
2021/12/02 19:31:25;;;;;;;5.72;5.22;;;0.40;99.90;;;;;;5011881;28;20235;-71
2021/12/02 19:33:52;;;;;;;7.97;5.93;;;0.40;99.90;;;;;;5011663;28;20238;-71
2021/12/02 19:36:20;;;;;;;8.80;6.35;;;0.40;99.90;;;;;;5011965;28;20229;-71
2021/12/02 19:38:48;;;;;;;6.55;5.90;;;0.40;99.90;;;;;;5010991;28;20285;-71
2021/12/02 19:41:15;;;;;;;7.63;5.97;;;0.40;99.90;;;;;;5016475;28;20251;-72
2021/12/02 19:43:45;;;;;;;7.43;5.55;;;0.40;99.90;;;;;;5012246;28;20211;-72
2021/12/02 19:46:13;;;;;;;8.50;6.07;;;0.30;99.90;;;;;;5015147;28;20213;-71
2021/12/02 19:48:40;;;;;;;5.60;5.07;;;0.30;99.90;;;;;;5011166;28;20548;-71
2021/12/02 19:51:07;;;;;;;5.80;5.18;;;0.30;99.90;;;;;;5013944;28;20285;-71
2021/12/02 19:53:36;;;;;;;6.30;5.20;;;0.30;99.90;;;;;;5011107;28;20203;-71
2021/12/02 19:56:04;;;;;;;11.93;5.03;;;0.30;99.90;;;;;;5011510;28;20538;-71
2021/12/02 19:58:31;;;;;;;6.45;5.90;;;0.30;99.90;;;;;;5011591;28;20211;-70
2021/12/02 20:00:58;;;;;;;5.80;5.30;;;0.30;99.90;;;;;;5010239;28;20730;-71
2021/12/02 20:03:25;;;;;;;8.55;6.15;;;0.20;99.90;;;;;;5011217;28;20203;-71
2021/12/02 20:05:52;;;;;;;5.55;5.05;;;0.20;99.90;;;;;;5010988;28;20227;-71
2021/12/02 20:08:19;;;;;;;7.10;6.22;;;0.20;99.90;;;;;;5018875;28;20651;-72
2021/12/02 20:10:48;;;;;;;12.10;6.88;;;0.20;99.90;;;;;;5012915;28;20253;-72
2021/12/02 20:13:15;;;;;;;9.48;5.57;;;0.20;99.90;;;;;;5022063;28;20235;-72
2021/12/02 20:15:54;;;;;;;13.30;5.75;;;0.20;99.90;;;;;;5023124;28;20264;-72
2021/12/02 20:18:23;;;;;;;10.82;6.20;;;0.20;99.90;;;;;;5022277;28;20210;-71
2021/12/02 20:20:50;;;;;;;22.20;6.35;;;0.20;99.90;;;;;;5015796;28;20230;-72
2021/12/02 20:23:17;;;;;;;10.85;6.00;;;0.10;99.90;;;;;;5014063;28;20214;-72
2021/12/02 20:25:44;;;;;;;13.50;7.82;;;0.20;99.90;;;;;;5017673;28;20680;-72
2021/12/02 20:28:13;;;;;;;12.40;7.90;;;0.20;99.90;;;;;;5010828;28;20624;-71
2021/12/02 20:30:40;;;;;;;9.25;6.30;;;0.20;99.90;;;;;;5010611;28;20589;-71
2021/12/02 20:33:08;;;;;;;8.45;6.93;;;0.20;99.90;;;;;;5013723;28;20667;-71
2021/12/02 20:35:35;;;;;;;11.38;6.90;;;0.20;99.90;;;;;;5011669;28;20207;-72
2021/12/02 20:38:02;;;;;;;11.23;7.60;;;0.20;99.90;;;;;;5011731;28;20215;-71
2021/12/02 20:40:29;;;;;;;10.80;7.45;;;0.20;99.90;;;;;;5011074;28;20230;-71
2021/12/02 20:42:56;;;;;;;11.32;7.30;;;0.20;99.90;;;;;;5017961;28;20278;-72
2021/12/02 20:45:29;;;;;;;13.02;8.75;;;0.20;99.90;;;;;;5011851;28;20219;-71
2021/12/02 20:47:59;;;;;;;9.13;5.88;;;0.20;99.90;;;;;;5011565;28;20266;-71
2021/12/02 20:50:28;;;;;;;12.43;6.85;;;0.20;99.90;;;;;;5016584;28;20710;-71
2021/12/02 20:52:56;;;;;;;8.13;5.85;;;0.20;99.90;;;;;;5018705;28;20290;-72
2021/12/02 20:55:34;;;;;;;7.70;6.95;;;0.20;99.90;;;;;;5011166;28;20568;-70
2021/12/02 20:58:01;;;;;;;7.47;5.47;;;0.20;99.90;;;;;;5006094;28;20558;-71
2021/12/02 21:00:32;;;;;;;8.18;5.97;;;0.20;99.90;;;;;;5017971;28;20223;-71
2021/12/02 21:02:59;;;;;;;9.15;6.85;;;0.20;99.90;;;;;;5025322;28;20203;-71
2021/12/02 21:05:27;;;;;;;13.98;8.43;;;0.20;99.90;;;;;;5011635;28;20230;-70
2021/12/02 21:07:54;;;;;;;6.47;5.85;;;0.20;99.90;;;;;;5011322;28;20261;-71
2021/12/02 21:10:20;;;;;;;6.30;5.32;;;0.20;99.90;;;;;;5010327;28;20230;-71
2021/12/02 21:12:48;;;;;;;9.80;5.63;;;0.20;99.90;;;;;;5019186;28;20238;-71
2021/12/02 21:15:19;;;;;;;9.13;5.78;;;0.30;99.90;;;;;;5025663;28;20261;-71
2021/12/02 21:17:47;;;;;;;6.25;5.43;;;0.20;99.90;;;;;;5011292;28;20633;-71
2021/12/02 21:20:16;;;;;;;6.60;5.20;;;0.30;99.90;;;;;;5022086;28;20230;-70
2021/12/02 21:22:43;;;;;;;5.55;4.95;;;0.30;99.90;;;;;;5010958;28;20207;-71
2021/12/02 21:25:11;;;;;;;6.10;4.82;;;0.30;99.90;;;;;;5020242;28;20222;-70
2021/12/02 21:27:38;;;;;;;8.68;5.07;;;0.30;99.90;;;;;;5011220;28;20211;-71
2021/12/02 21:30:08;;;;;;;6.30;5.70;;;0.30;99.90;;;;;;5026458;28;20308;-71
2021/12/02 21:32:35;;;;;;;9.95;4.57;;;0.30;99.90;;;;;;5025286;28;20287;-71
2021/12/02 21:35:04;;;;;;;6.50;5.80;;;0.30;99.90;;;;;;5023546;28;20206;-71
2021/12/02 21:37:37;;;;;;;10.40;6.78;;;0.40;99.90;;;;;;5025829;28;20210;-71
2021/12/02 21:40:09;;;;;;;8.05;5.88;;;0.40;99.90;;;;;;5009783;28;20203;-71
2021/12/02 21:42:37;;;;;;;7.40;6.70;;;0.40;99.90;;;;;;5023981;28;20207;-71
2021/12/02 21:45:05;;;;;;;7.35;6.63;;;0.40;99.90;;;;;;5011765;28;20238;-71
2021/12/02 21:47:32;;;;;;;7.47;6.50;;;0.50;99.90;;;;;;5006086;28;20597;-71
2021/12/02 21:49:59;;;;;;;8.32;7.35;;;0.50;99.90;;;;;;5025027;28;20578;-71
2021/12/02 21:52:27;;;;;;;7.32;6.63;;;0.50;99.90;;;;;;5021363;28;20318;-71
2021/12/02 21:54:56;;;;;;;7.78;6.90;;;0.50;99.90;;;;;;5009750;28;20694;-70
2021/12/02 21:57:25;;;;;;;6.80;6.18;;;0.50;99.90;;;;;;5013078;28;20570;-70
2021/12/02 22:00:00;;;;;;;9.20;6.40;;;0.50;99.90;;;;;;5023899;28;20206;-70
